createdAt,value
2018-04-16T00:00:31.027Z,100388
2018-04-16T00:02:59.274Z,100378
2018-04-16T00:05:27.386Z,100379
2018-04-16T00:07:55.800Z,100383
2018-04-16T00:10:24.104Z,100384
2018-04-16T00:12:52.180Z,100366
2018-04-16T00:15:20.363Z,100368
2018-04-16T00:17:48.625Z,100361
2018-04-16T00:20:16.785Z,100353
2018-04-16T00:22:44.869Z,100358
2018-04-16T00:25:13.156Z,100351
2018-04-16T00:27:41.249Z,100352
2018-04-16T00:30:09.371Z,100340
2018-04-16T00:32:43.221Z,100332
2018-04-16T00:35:17.348Z,100337
2018-04-16T00:37:51.007Z,100337
2018-04-16T00:40:24.841Z,100323
2018-04-16T00:42:58.915Z,100325
2018-04-16T00:45:32.675Z,100315
2018-04-16T00:48:06.712Z,100318
2018-04-16T00:50:40.700Z,100321
2018-04-16T00:53:14.751Z,100323
2018-04-16T00:55:48.554Z,100336
2018-04-16T00:58:22.698Z,100338
2018-04-16T01:00:56.417Z,100347
2018-04-16T01:03:30.051Z,100342
2018-04-16T01:06:03.893Z,100336
2018-04-16T01:08:37.790Z,100345
2018-04-16T01:11:11.434Z,100343
2018-04-16T01:13:45.589Z,100345
2018-04-16T01:16:19.483Z,100352
2018-04-16T01:18:53.331Z,100352
2018-04-16T01:21:27.209Z,100345
2018-04-16T01:24:01.215Z,100345
2018-04-16T01:26:34.997Z,100350
2018-04-16T01:29:09.237Z,100333
2018-04-16T01:31:43.288Z,100343
2018-04-16T01:34:17.211Z,100350
2018-04-16T01:36:51.292Z,100349
2018-04-16T01:39:24.959Z,100348
2018-04-16T01:41:59.225Z,100353
2018-04-16T01:44:32.977Z,100348
2018-04-16T01:47:06.821Z,100354
2018-04-16T01:49:40.687Z,100347
2018-04-16T01:52:14.406Z,100341
2018-04-16T01:54:48.531Z,100341
2018-04-16T01:57:22.468Z,100345
2018-04-16T01:59:56.451Z,100343
2018-04-16T02:02:30.131Z,100338
2018-04-16T02:05:03.977Z,100337
2018-04-16T02:07:37.993Z,100353
2018-04-16T02:10:11.870Z,100339
2018-04-16T02:12:45.766Z,100337
2018-04-16T02:15:19.703Z,100332
2018-04-16T02:17:53.642Z,100334
2018-04-16T02:20:27.409Z,100321
2018-04-16T02:23:01.387Z,100322
2018-04-16T02:25:35.123Z,100321
2018-04-16T02:28:09.059Z,100330
2018-04-16T02:30:42.954Z,100337
2018-04-16T02:33:16.765Z,100335
2018-04-16T02:35:53.365Z,100345
2018-04-16T02:38:27.101Z,100352
2018-04-16T02:41:00.880Z,100355
2018-04-16T02:43:35.332Z,100357
2018-04-16T02:46:09.073Z,100354
2018-04-16T02:48:42.867Z,100341
2018-04-16T02:51:16.727Z,100331
2018-04-16T02:53:50.742Z,100318
2018-04-16T02:56:24.854Z,100334
2018-04-16T02:58:58.905Z,100330
2018-04-16T03:01:32.722Z,100324
2018-04-16T03:04:07.221Z,100336
2018-04-16T03:06:41.109Z,100322
2018-04-16T03:09:15.313Z,100320
2018-04-16T03:11:49.073Z,100331
2018-04-16T03:14:22.906Z,100334
2018-04-16T03:16:56.843Z,100331
2018-04-16T03:19:30.756Z,100332
2018-04-16T03:22:04.673Z,100335
2018-04-16T03:24:38.512Z,100331
2018-04-16T03:27:12.457Z,100337
2018-04-16T03:29:46.584Z,100348
2018-04-16T03:32:20.651Z,100337
2018-04-16T03:34:54.453Z,100343
2018-04-16T03:37:28.147Z,100345
2018-04-16T03:40:02.057Z,100351
2018-04-16T03:42:35.958Z,100355
2018-04-16T03:45:09.643Z,100352
2018-04-16T03:47:43.585Z,100362
2018-04-16T03:50:17.400Z,100374
2018-04-16T03:52:51.268Z,100360
2018-04-16T03:55:25.088Z,100364
2018-04-16T03:57:53.941Z,100371
2018-04-16T04:00:22.225Z,100376
2018-04-16T04:02:50.296Z,100382
2018-04-16T04:05:18.389Z,100370
2018-04-16T04:07:46.836Z,100385
2018-04-16T04:10:15.172Z,100377
2018-04-16T04:12:43.584Z,100378
2018-04-16T04:15:11.666Z,100382
2018-04-16T04:17:40.294Z,100379
2018-04-16T04:20:08.686Z,100383
2018-04-16T04:22:49.087Z,100384
2018-04-16T04:25:29.802Z,100375
2018-04-16T04:28:09.918Z,100378
2018-04-16T04:30:39.545Z,100378
2018-04-16T04:33:09.330Z,100383
2018-04-16T04:35:37.696Z,100379
2018-04-16T04:38:06.188Z,100394
2018-04-16T04:40:34.273Z,100400
2018-04-16T04:43:02.473Z,100404
2018-04-16T04:45:30.584Z,100403
2018-04-16T04:47:58.769Z,100400
2018-04-16T04:50:27.091Z,100402
2018-04-16T04:52:55.521Z,100407
2018-04-16T04:55:23.854Z,100410
2018-04-16T04:57:52.515Z,100406
2018-04-16T05:00:21.491Z,100418
2018-04-16T05:02:49.865Z,100416
2018-04-16T05:05:18.451Z,100413
2018-04-16T05:07:46.825Z,100408
2018-04-16T05:10:15.430Z,100405
2018-04-16T05:12:43.797Z,100396
2018-04-16T05:15:24.010Z,100393
2018-04-16T05:17:52.805Z,100392
2018-04-16T05:20:21.182Z,100393
2018-04-16T05:22:49.350Z,100396
2018-04-16T05:25:17.698Z,100411
2018-04-16T05:27:46.059Z,100414
2018-04-16T05:30:16.272Z,100412
2018-04-16T05:32:44.521Z,100417
2018-04-16T05:35:13.021Z,100424
2018-04-16T05:37:42.183Z,100416
2018-04-16T05:40:10.320Z,100415
2018-04-16T05:42:39.010Z,100416
2018-04-16T05:45:07.274Z,100415
2018-04-16T05:47:36.306Z,100426
2018-04-16T05:50:04.863Z,100428
2018-04-16T05:52:33.230Z,100438
2018-04-16T05:55:01.431Z,100439
2018-04-16T06:00:39.122Z,100433
2018-04-16T06:03:07.438Z,100452
2018-04-16T06:05:35.856Z,100448
2018-04-16T06:08:04.010Z,100444
2018-04-16T06:10:32.437Z,100455
2018-04-16T06:13:00.644Z,100444
2018-04-16T06:15:29.161Z,100450
2018-04-16T06:17:57.466Z,100457
2018-04-16T06:20:25.582Z,100444
2018-04-16T06:22:53.978Z,100458
2018-04-16T06:25:22.310Z,100457
2018-04-16T06:27:50.453Z,100463
2018-04-16T06:30:18.695Z,100473
2018-04-16T06:32:47.149Z,100480
2018-04-16T06:35:15.396Z,100476
2018-04-16T06:37:43.877Z,100476
2018-04-16T06:40:12.242Z,100477
2018-04-16T06:42:40.798Z,100497
2018-04-16T06:45:09.090Z,100484
2018-04-16T06:47:37.347Z,100481
2018-04-16T06:50:05.590Z,100485
2018-04-16T06:52:34.231Z,100491
2018-04-16T06:55:02.841Z,100483
2018-04-16T06:57:30.935Z,100484
2018-04-16T06:59:59.313Z,100486
2018-04-16T07:02:27.727Z,100488
2018-04-16T07:04:55.986Z,100492
2018-04-16T07:07:24.688Z,100490
2018-04-16T07:09:52.834Z,100488
2018-04-16T07:12:21.034Z,100494
2018-04-16T07:14:49.280Z,100505
2018-04-16T07:17:17.708Z,100507
2018-04-16T07:19:46.671Z,100515
2018-04-16T07:22:15.053Z,100505
2018-04-16T07:24:43.321Z,100501
2018-04-16T07:27:12.080Z,100511
2018-04-16T07:29:40.334Z,100514
2018-04-16T07:32:08.762Z,100521
2018-04-16T07:34:37.423Z,100511
2018-04-16T07:37:05.538Z,100510
2018-04-16T07:39:33.795Z,100529
2018-04-16T07:42:02.231Z,100525
2018-04-16T07:44:30.342Z,100528
2018-04-16T07:46:58.740Z,100519
2018-04-16T07:49:27.148Z,100528
2018-04-16T07:51:55.403Z,100525
2018-04-16T07:54:23.782Z,100538
2018-04-16T07:56:52.228Z,100529
2018-04-16T07:59:20.322Z,100531
2018-04-16T08:01:48.553Z,100540
2018-04-16T08:04:16.794Z,100541
2018-04-16T08:06:45.230Z,100539
2018-04-16T08:09:13.440Z,100548
2018-04-16T08:11:41.716Z,100543
2018-04-16T08:14:10.117Z,100540
2018-04-16T08:16:38.551Z,100548
2018-04-16T08:19:06.848Z,100549
2018-04-16T08:21:35.206Z,100558
2018-04-16T08:24:03.322Z,100549
2018-04-16T08:26:31.646Z,100549
2018-04-16T08:29:00.045Z,100550
2018-04-16T08:31:28.354Z,100547
2018-04-16T08:33:56.521Z,100556
2018-04-16T08:36:25.000Z,100554
2018-04-16T08:38:53.451Z,100538
2018-04-16T08:41:21.892Z,100544
2018-04-16T08:43:50.107Z,100547
2018-04-16T08:46:18.466Z,100544
2018-04-16T08:48:47.146Z,100549
2018-04-16T08:51:15.464Z,100543
2018-04-16T08:53:44.131Z,100540
2018-04-16T08:56:12.463Z,100533
2018-04-16T08:58:41.139Z,100542
2018-04-16T09:01:09.972Z,100547
2018-04-16T09:03:38.148Z,100550
2018-04-16T09:06:06.636Z,100552
2018-04-16T09:08:35.174Z,100536
2018-04-16T09:11:03.296Z,100541
2018-04-16T09:13:31.770Z,100547
2018-04-16T09:16:00.160Z,100543
2018-04-16T09:18:28.402Z,100531
2018-04-16T09:20:56.629Z,100550
2018-04-16T09:23:25.149Z,100545
2018-04-16T09:25:53.236Z,100547
2018-04-16T09:28:21.709Z,100544
2018-04-16T09:30:50.059Z,100546
2018-04-16T09:33:18.369Z,100558
2018-04-16T09:35:46.845Z,100567
2018-04-16T09:38:15.090Z,100555
2018-04-16T09:40:43.482Z,100553
2018-04-16T09:43:11.704Z,100557
2018-04-16T09:45:40.030Z,100555
2018-04-16T09:48:08.337Z,100551
2018-04-16T09:50:36.768Z,100546
2018-04-16T09:53:04.962Z,100549
2018-04-16T09:55:33.182Z,100540
2018-04-16T09:58:01.586Z,100540
2018-04-16T10:00:30.017Z,100541
2018-04-16T10:02:58.276Z,100558
2018-04-16T10:05:26.808Z,100558
2018-04-16T10:07:54.995Z,100553
2018-04-16T10:10:23.424Z,100550
2018-04-16T10:12:51.884Z,100542
2018-04-16T10:15:20.569Z,100548
2018-04-16T10:17:48.671Z,100548
2018-04-16T10:20:17.010Z,100544
2018-04-16T10:22:45.305Z,100545
2018-04-16T10:25:13.417Z,100546
2018-04-16T10:27:41.804Z,100546
2018-04-16T10:30:09.994Z,100546
2018-04-16T10:32:38.306Z,100545
2018-04-16T10:35:06.699Z,100553
2018-04-16T10:37:35.237Z,100547
2018-04-16T10:40:03.566Z,100547
2018-04-16T10:42:31.785Z,100544
2018-04-16T10:45:00.186Z,100547
2018-04-16T10:47:28.392Z,100552
2018-04-16T10:49:56.649Z,100554
2018-04-16T10:52:24.946Z,100565
2018-04-16T10:54:53.047Z,100572
2018-04-16T10:57:21.316Z,100563
2018-04-16T10:59:49.522Z,100561
2018-04-16T11:02:17.693Z,100565
2018-04-16T11:04:45.792Z,100567
2018-04-16T11:07:14.088Z,100564
2018-04-16T11:09:42.411Z,100563
2018-04-16T11:12:10.747Z,100569
2018-04-16T11:14:39.246Z,100575
2018-04-16T11:17:07.489Z,100575
2018-04-16T11:19:35.593Z,100575
2018-04-16T11:22:03.954Z,100575
2018-04-16T11:24:32.408Z,100586
2018-04-16T11:27:00.704Z,100576
2018-04-16T11:29:28.791Z,100578
2018-04-16T11:31:57.533Z,100586
2018-04-16T11:34:25.790Z,100591
2018-04-16T11:36:54.297Z,100598
2018-04-16T11:39:22.672Z,100586
2018-04-16T11:41:50.766Z,100587
2018-04-16T11:44:19.156Z,100592
2018-04-16T11:46:47.489Z,100589
2018-04-16T11:49:15.656Z,100583
2018-04-16T11:51:43.727Z,100592
2018-04-16T11:54:11.973Z,100592
2018-04-16T11:56:40.204Z,100582
2018-04-16T11:59:09.055Z,100598
2018-04-16T12:01:37.459Z,100599
2018-04-16T12:04:05.797Z,100598
2018-04-16T12:06:34.212Z,100591
2018-04-16T12:09:02.907Z,100600
2018-04-16T12:11:31.138Z,100595
2018-04-16T12:13:59.358Z,100594
2018-04-16T12:16:27.665Z,100598
2018-04-16T12:18:55.781Z,100596
2018-04-16T12:21:30.314Z,100607
2018-04-16T12:23:58.417Z,100607
2018-04-16T12:26:26.773Z,100620
2018-04-16T12:28:55.027Z,100608
2018-04-16T12:31:28.621Z,100610
2018-04-16T12:33:56.852Z,100606
2018-04-16T12:36:30.920Z,100606
2018-04-16T12:38:59.132Z,100615
2018-04-16T12:41:32.931Z,100621
2018-04-16T12:44:01.212Z,100608
2018-04-16T12:46:40.849Z,100611
2018-04-16T12:49:09.217Z,100608
2018-04-16T15:51:23.124Z,100727
2018-04-16T15:53:51.502Z,100724
2018-04-16T15:56:19.869Z,100729
2018-04-16T15:58:48.675Z,100737
2018-04-16T16:01:17.248Z,100732
2018-04-16T16:03:45.374Z,100742
2018-04-16T16:06:13.613Z,100742
2018-04-16T16:08:41.959Z,100738
2018-04-16T16:11:10.138Z,100733
2018-04-16T16:13:38.288Z,100738
2018-04-16T16:16:07.099Z,100739
2018-04-16T16:18:35.509Z,100742
2018-04-16T16:21:03.725Z,100740
2018-04-16T16:23:32.159Z,100745
2018-04-16T16:26:00.515Z,100739
2018-04-16T16:28:28.832Z,100742
2018-04-16T16:30:57.275Z,100744
2018-04-16T16:33:25.410Z,100752
2018-04-16T16:35:53.560Z,100757
2018-04-16T16:38:22.108Z,100760
2018-04-16T16:40:50.481Z,100766
2018-04-16T16:43:18.569Z,100766
2018-04-16T16:45:46.983Z,100768
2018-04-16T16:48:15.108Z,100779
2018-04-16T16:50:43.214Z,100766
2018-04-16T16:53:11.551Z,100772
2018-04-16T16:55:39.698Z,100780
2018-04-16T16:58:08.308Z,100793
2018-04-16T17:00:36.612Z,100791
2018-04-16T17:03:04.830Z,100793
2018-04-16T17:05:33.000Z,100803
2018-04-16T17:08:01.150Z,100808
2018-04-16T17:10:29.450Z,100810
2018-04-16T17:12:57.612Z,100813
2018-04-16T17:15:26.047Z,100818
2018-04-16T17:17:54.554Z,100814
2018-04-16T17:20:22.661Z,100824
2018-04-16T17:22:50.889Z,100825
2018-04-16T17:25:19.153Z,100822
2018-04-16T17:27:47.574Z,100827
2018-04-16T17:30:15.790Z,100834
2018-04-16T17:32:44.029Z,100838
2018-04-16T17:35:12.237Z,100838
2018-04-16T17:37:40.766Z,100844
2018-04-16T17:40:08.991Z,100851
2018-04-16T17:42:37.309Z,100853
2018-04-16T17:45:05.757Z,100859
2018-04-16T17:47:34.072Z,100853
2018-04-16T17:50:02.306Z,100859
2018-04-16T17:52:30.555Z,100862
2018-04-16T17:54:58.738Z,100862
2018-04-16T17:57:26.981Z,100866
2018-04-16T17:59:55.275Z,100878
2018-04-16T18:02:23.633Z,100863
2018-04-16T18:04:52.039Z,100872
2018-04-16T18:07:20.129Z,100891
2018-04-16T18:09:48.240Z,100888
2018-04-16T18:12:16.558Z,100897
2018-04-16T18:14:44.809Z,100915
2018-04-16T18:17:13.186Z,100916
2018-04-16T18:19:41.639Z,100919
2018-04-16T18:22:09.717Z,100924
2018-04-16T18:24:38.160Z,100923
2018-04-16T18:27:06.446Z,100936
2018-04-16T18:29:34.597Z,100942
2018-04-16T18:32:02.782Z,100945
2018-04-16T18:34:30.902Z,100950
2018-04-16T18:36:59.002Z,100955
2018-04-16T18:39:27.146Z,100965
2018-04-16T18:41:55.380Z,100975
2018-04-16T18:44:23.529Z,100975
2018-04-16T18:46:51.657Z,100982
2018-04-16T18:49:19.743Z,100999
2018-04-16T18:51:48.010Z,101002
2018-04-16T18:54:16.192Z,100998
2018-04-16T18:56:44.583Z,101011
2018-04-16T18:59:12.931Z,101010
2018-04-16T19:01:41.376Z,101016
2018-04-16T19:04:09.474Z,101025
2018-04-16T19:06:37.767Z,101024
2018-04-16T19:09:06.866Z,101033
2018-04-16T19:11:35.113Z,101029
2018-04-16T19:14:03.528Z,101035
2018-04-16T19:16:31.841Z,101037
2018-04-16T19:19:00.309Z,101037
2018-04-16T19:21:34.104Z,101045
2018-04-16T19:24:02.217Z,101048
2018-04-16T19:26:30.607Z,101054
2018-04-16T19:28:58.982Z,101061
2018-04-16T19:31:27.080Z,101070
2018-04-16T19:34:00.850Z,101073
2018-04-16T19:36:29.100Z,101077
2018-04-16T19:38:58.157Z,101081
2018-04-16T19:41:26.268Z,101082
2018-04-16T19:43:54.526Z,101087
2018-04-16T19:46:22.633Z,101077
2018-04-16T19:48:56.454Z,101083
2018-04-16T19:51:24.601Z,101088
2018-04-16T19:53:52.913Z,101092
2018-04-16T19:56:26.862Z,101103
2018-04-16T19:58:54.966Z,101107
2018-04-16T20:01:23.219Z,101122
2018-04-16T20:03:57.036Z,101110
2018-04-16T20:06:25.200Z,101114
2018-04-16T20:08:53.311Z,101121
2018-04-16T20:11:21.741Z,101129
2018-04-16T20:13:50.091Z,101138
2018-04-16T20:16:18.200Z,101140
2018-04-16T20:18:46.330Z,101148
2018-04-16T20:21:14.429Z,101151
2018-04-16T20:23:42.607Z,101152
2018-04-16T20:26:10.737Z,101149
2018-04-16T20:28:41.796Z,101154
2018-04-16T20:31:10.160Z,101162
2018-04-16T20:33:38.513Z,101168
2018-04-16T20:36:06.755Z,101164
2018-04-16T20:38:35.392Z,101180
2018-04-16T20:41:03.507Z,101181
2018-04-16T20:43:31.603Z,101176
2018-04-16T20:45:59.706Z,101183
2018-04-16T20:48:27.913Z,101180
2018-04-16T20:50:56.052Z,101194
2018-04-16T20:53:24.224Z,101184
2018-04-16T20:55:52.336Z,101192
2018-04-16T20:58:20.417Z,101192
2018-04-16T21:00:48.544Z,101199
2018-04-16T21:03:16.657Z,101202
2018-04-16T21:05:44.805Z,101211
2018-04-16T21:08:13.227Z,101207
2018-04-16T21:10:41.319Z,101208
2018-04-16T21:13:10.311Z,101209
2018-04-16T21:15:38.656Z,101214
2018-04-16T21:18:06.864Z,101220
2018-04-16T21:20:34.977Z,101216
2018-04-16T21:23:03.195Z,101226
2018-04-16T21:25:31.517Z,101233
2018-04-16T21:27:59.658Z,101238
2018-04-16T21:30:27.750Z,101236
2018-04-16T21:32:56.134Z,101245
2018-04-16T21:35:24.467Z,101246
2018-04-16T21:37:54.125Z,101252
2018-04-16T21:40:22.269Z,101239
2018-04-16T21:42:50.447Z,101258
2018-04-16T21:45:18.529Z,101255
2018-04-16T21:47:46.617Z,101270
2018-04-16T21:50:15.109Z,101257
2018-04-16T21:52:43.266Z,101268
2018-04-16T21:55:11.433Z,101271
2018-04-16T21:57:39.509Z,101273
2018-04-16T22:00:07.849Z,101269
2018-04-16T22:02:35.930Z,101273
2018-04-16T22:05:04.038Z,101278
2018-04-16T22:07:32.143Z,101273
2018-04-16T22:10:00.279Z,101271
2018-04-16T22:12:28.563Z,101272
2018-04-16T22:14:56.831Z,101268
2018-04-16T22:17:25.001Z,101282
2018-04-16T22:19:53.362Z,101278
2018-04-16T22:22:21.441Z,101282
2018-04-16T22:24:49.815Z,101288
2018-04-16T22:27:18.216Z,101288
2018-04-16T22:29:46.586Z,101294
2018-04-16T22:32:14.683Z,101293
2018-04-16T22:34:42.774Z,101287
2018-04-16T22:37:10.881Z,101302
2018-04-16T22:39:38.970Z,101301
2018-04-16T22:42:07.230Z,101305
2018-04-16T22:44:35.567Z,101308
2018-04-16T22:47:03.701Z,101315
2018-04-16T22:49:31.813Z,101308
2018-04-16T22:51:59.884Z,101319
2018-04-16T22:54:27.974Z,101318
2018-04-16T22:56:56.049Z,101324
2018-04-16T22:59:24.244Z,101333
2018-04-16T23:01:52.533Z,101324
2018-04-16T23:04:20.897Z,101332
2018-04-16T23:06:48.994Z,101333
2018-04-16T23:09:17.075Z,101336
2018-04-16T23:11:45.169Z,101338
2018-04-16T23:14:13.331Z,101343
2018-04-16T23:16:41.513Z,101328
2018-04-16T23:19:09.907Z,101342
2018-04-16T23:21:38.010Z,101341
2018-04-16T23:24:06.147Z,101341
2018-04-16T23:26:34.356Z,101345
2018-04-16T23:29:02.449Z,101347
2018-04-16T23:31:30.600Z,101349
2018-04-16T23:33:58.977Z,101349
2018-04-16T23:36:27.074Z,101360
2018-04-16T23:38:55.353Z,101361
2018-04-16T23:41:23.851Z,101368
2018-04-16T23:43:52.202Z,101386
2018-04-16T23:46:20.575Z,101377
2018-04-16T23:48:48.655Z,101385
2018-04-16T23:51:16.899Z,101385
2018-04-16T23:53:44.997Z,101370
2018-04-16T23:56:13.078Z,101393
2018-04-16T23:58:41.219Z,101386
